createdAt,value
2018-09-25T00:00:00.664Z,68.50
2018-09-25T00:02:35.857Z,68.60
2018-09-25T00:05:11.245Z,68.70
2018-09-25T00:07:45.644Z,68.70
2018-09-25T00:10:20.279Z,68.90
2018-09-25T00:12:54.855Z,69.00
2018-09-25T00:15:30.665Z,69.20
2018-09-25T00:18:06.218Z,69.10
2018-09-25T00:20:40.678Z,69.10
2018-09-25T00:23:15.155Z,69.10
2018-09-25T00:25:49.765Z,69.10
2018-09-25T00:28:25.238Z,69.10
2018-09-25T00:30:59.885Z,69.10
2018-09-25T00:33:34.404Z,69.10
2018-09-25T00:36:09.622Z,69.10
2018-09-25T00:38:44.844Z,69.10
2018-09-25T00:41:19.474Z,69.20
2018-09-25T00:43:55.100Z,69.20
2018-09-25T00:46:29.720Z,69.30
2018-09-25T00:49:04.886Z,69.40
2018-09-25T00:51:40.547Z,69.40
2018-09-25T00:54:14.993Z,69.40
2018-09-25T00:56:50.148Z,69.30
2018-09-25T00:59:24.714Z,69.40
2018-09-25T01:01:59.278Z,69.50
2018-09-25T01:04:33.924Z,69.60
2018-09-25T01:07:08.592Z,69.60
2018-09-25T01:09:43.234Z,69.60
2018-09-25T01:12:17.981Z,69.50
2018-09-25T01:14:52.724Z,69.60
2018-09-25T01:17:27.301Z,69.60
2018-09-25T01:20:01.877Z,69.50
2018-09-25T01:22:36.251Z,69.60
2018-09-25T01:25:11.815Z,69.50
2018-09-25T01:27:46.323Z,69.60
2018-09-25T01:30:20.867Z,69.70
2018-09-25T01:32:55.284Z,69.70
2018-09-25T01:35:29.739Z,69.70
2018-09-25T01:38:04.269Z,69.70
2018-09-25T01:40:38.732Z,69.70
2018-09-25T01:43:13.402Z,69.70
2018-09-25T01:45:47.931Z,69.60
2018-09-25T01:48:22.553Z,69.70
2018-09-25T01:50:57.110Z,69.70
2018-09-25T01:53:31.918Z,69.80
2018-09-25T01:56:07.427Z,69.70
2018-09-25T01:58:42.016Z,69.80
2018-09-25T02:01:17.537Z,69.90
2018-09-25T02:03:52.048Z,69.90
2018-09-25T02:06:26.607Z,70.00
2018-09-25T02:09:02.264Z,70.10
2018-09-25T02:11:36.887Z,70.10
2018-09-25T02:14:11.368Z,70.20
2018-09-25T02:16:45.946Z,70.30
2018-09-25T02:19:20.569Z,70.30
2018-09-25T02:21:55.125Z,70.30
2018-09-25T02:24:31.117Z,70.30
2018-09-25T02:27:05.693Z,70.30
2018-09-25T02:29:41.293Z,70.30
2018-09-25T02:32:15.800Z,70.20
2018-09-25T02:34:50.495Z,70.30
2018-09-25T02:37:25.077Z,70.50
2018-09-25T02:39:59.571Z,70.60
2018-09-25T02:42:34.070Z,70.70
2018-09-25T02:45:08.795Z,70.90
2018-09-25T02:47:43.851Z,70.80
2018-09-25T02:50:19.508Z,71.00
2018-09-25T02:52:53.938Z,71.00
2018-09-25T02:55:28.866Z,71.00
2018-09-25T02:58:03.500Z,71.00
2018-09-25T03:00:38.159Z,71.10
2018-09-25T03:03:12.662Z,71.00
2018-09-25T03:05:47.208Z,71.00
2018-09-25T03:08:21.668Z,71.00
2018-09-25T03:10:56.299Z,71.00
2018-09-25T03:13:32.090Z,71.00
2018-09-25T03:16:06.765Z,71.00
2018-09-25T03:18:41.320Z,71.00
2018-09-25T03:21:16.420Z,71.00
2018-09-25T03:23:52.000Z,71.10
2018-09-25T03:26:26.570Z,71.10
2018-09-25T03:29:01.043Z,71.20
2018-09-25T03:31:35.438Z,71.10
2018-09-25T03:34:10.639Z,71.20
2018-09-25T03:36:45.020Z,71.20
2018-09-25T03:39:19.493Z,71.20
2018-09-25T03:41:54.200Z,71.30
2018-09-25T03:44:28.722Z,71.40
2018-09-25T03:47:03.425Z,71.50
2018-09-25T03:49:38.181Z,71.50
2018-09-25T03:52:12.724Z,71.70
2018-09-25T03:54:48.668Z,71.50
2018-09-25T03:57:24.473Z,71.50
2018-09-25T03:59:59.063Z,71.50
2018-09-25T04:02:33.666Z,71.60
2018-09-25T04:05:09.108Z,71.60
2018-09-25T04:07:43.625Z,71.60
2018-09-25T04:10:18.813Z,71.60
2018-09-25T04:12:53.356Z,71.70
2018-09-25T04:15:28.351Z,71.60
2018-09-25T04:18:02.882Z,71.60
2018-09-25T04:20:37.396Z,71.60
2018-09-25T04:23:12.026Z,71.60
2018-09-25T04:25:48.119Z,71.60
2018-09-25T04:28:23.094Z,71.60
2018-09-25T04:30:57.788Z,71.50
2018-09-25T04:33:32.459Z,71.60
2018-09-25T04:36:07.658Z,71.50
2018-09-25T04:38:42.748Z,71.50
2018-09-25T04:41:17.544Z,71.50
2018-09-25T04:43:53.391Z,71.50
2018-09-25T04:46:29.180Z,71.50
2018-09-25T04:49:04.209Z,71.60
2018-09-25T04:51:38.729Z,72.40
2018-09-25T04:54:13.238Z,71.70
2018-09-25T04:56:49.188Z,71.70
2018-09-25T04:59:23.897Z,71.80
2018-09-25T05:01:58.505Z,71.80
2018-09-25T05:04:32.988Z,71.70
2018-09-25T05:07:08.818Z,71.60
2018-09-25T05:09:44.381Z,71.70
2018-09-25T05:12:19.697Z,71.70
2018-09-25T05:14:56.473Z,71.70
2018-09-25T05:17:31.159Z,71.60
2018-09-25T05:20:05.792Z,71.60
2018-09-25T05:22:41.363Z,71.60
2018-09-25T05:25:16.243Z,71.80
2018-09-25T05:27:50.685Z,71.70
2018-09-25T05:30:25.212Z,71.70
2018-09-25T05:32:59.748Z,71.70
2018-09-25T05:35:34.354Z,71.60
2018-09-25T05:38:09.092Z,71.60
2018-09-25T05:40:44.562Z,71.60
2018-09-25T05:43:19.191Z,71.50
2018-09-25T05:45:53.715Z,71.50
2018-09-25T05:48:28.565Z,71.40
2018-09-25T05:51:03.107Z,71.40
2018-09-25T05:53:37.579Z,71.30
2018-09-25T05:56:12.188Z,71.40
2018-09-25T05:58:46.663Z,71.40
2018-09-25T06:01:22.507Z,71.30
2018-09-25T06:04:10.691Z,71.20
2018-09-25T06:07:22.125Z,71.20
2018-09-25T06:19:32.758Z,70.70
2018-09-25T06:22:12.161Z,70.60
2018-09-25T06:27:34.412Z,70.50
2018-09-25T06:30:09.414Z,70.40
2018-09-25T06:33:41.097Z,70.30
2018-09-25T06:36:30.716Z,70.10
2018-09-25T06:39:17.159Z,69.90
2018-09-25T06:42:03.353Z,69.80
2018-09-25T06:44:46.476Z,69.70
2018-09-25T06:50:54.731Z,69.50
2018-09-25T06:53:36.590Z,69.20
2018-09-25T06:56:21.999Z,68.90
2018-09-25T06:59:11.422Z,68.80
2018-09-25T07:04:43.861Z,69.30
2018-09-25T07:07:22.473Z,68.40
2018-09-25T07:09:59.777Z,68.40
2018-09-25T07:12:45.875Z,68.30
2018-09-25T07:18:34.058Z,68.20
2018-09-25T07:21:20.011Z,67.90
2018-09-25T07:23:59.044Z,67.60
2018-09-25T07:26:39.945Z,67.50
2018-09-25T07:32:19.595Z,67.20
2018-09-25T07:34:58.219Z,67.10
2018-09-25T07:37:34.868Z,66.00
2018-09-25T07:40:13.106Z,66.00
2018-09-25T07:46:36.390Z,65.70
2018-09-25T07:52:16.141Z,65.30
2018-09-25T07:54:53.015Z,65.10
2018-09-25T07:57:31.950Z,64.90
2018-09-25T08:01:12.521Z,64.40
2018-09-25T08:03:51.944Z,64.20
2018-09-25T08:06:29.371Z,63.90
2018-09-25T08:09:06.213Z,63.60
2018-09-25T08:11:42.687Z,63.50
2018-09-25T08:21:59.972Z,62.80
2018-09-25T08:24:39.525Z,62.60
2018-09-25T08:27:17.938Z,62.50
2018-09-25T08:57:52.719Z,61.00
2018-09-25T09:00:29.387Z,61.00
2018-09-25T09:03:07.649Z,60.30
2018-09-25T09:06:01.592Z,59.40
2018-09-25T09:08:40.634Z,58.20
2018-09-25T09:11:30.091Z,57.20
2018-09-25T09:14:07.704Z,56.40
2018-09-25T09:16:46.088Z,55.70
2018-09-25T09:28:48.205Z,54.00
2018-09-25T09:56:07.826Z,54.00
2018-09-25T10:04:50.744Z,51.80
2018-09-25T10:13:40.444Z,51.10
2018-09-25T10:16:18.883Z,50.90
2018-09-25T10:18:57.832Z,50.50
2018-09-25T10:21:34.583Z,50.20
2018-09-25T10:24:12.108Z,49.80
2018-09-25T10:26:48.816Z,49.80
2018-09-25T10:29:27.247Z,50.00
2018-09-25T10:32:03.657Z,50.30
2018-09-25T10:34:40.363Z,49.60
2018-09-25T10:40:33.031Z,48.60
2018-09-25T10:43:08.731Z,48.30
2018-09-25T10:46:08.393Z,47.90
2018-09-25T10:48:45.678Z,47.90
2018-09-25T10:51:22.164Z,47.90
2018-09-25T10:53:58.515Z,47.80
2018-09-25T10:59:21.623Z,47.70
2018-09-25T11:02:00.117Z,47.20
2018-09-25T11:04:45.110Z,46.40
2018-09-25T11:07:40.817Z,45.40
2018-09-25T11:10:52.272Z,45.30
2018-09-25T11:13:32.526Z,45.40
2018-09-25T11:16:11.970Z,45.20
2018-09-25T11:18:46.901Z,45.20
2018-09-25T11:21:23.681Z,45.40
2018-09-25T11:23:58.736Z,45.60
2018-09-25T11:26:34.521Z,45.70
2018-09-25T11:29:13.874Z,45.60
2018-09-25T11:31:49.860Z,45.40
2018-09-25T11:34:25.709Z,45.20
2018-09-25T11:37:01.635Z,45.00
2018-09-25T11:39:38.473Z,44.80
2018-09-25T11:42:38.725Z,43.50
2018-09-25T12:12:46.680Z,42.80
2018-09-25T12:15:24.142Z,41.80
2018-09-25T12:17:59.174Z,41.40
2018-09-25T12:20:34.039Z,41.40
2018-09-25T12:23:12.802Z,41.80
2018-09-25T12:25:48.429Z,42.00
2018-09-25T12:28:25.002Z,42.20
2018-09-25T12:31:01.002Z,42.70
2018-09-25T12:33:36.160Z,41.90
2018-09-25T12:38:56.203Z,42.20
2018-09-25T12:41:39.767Z,42.50
2018-09-25T12:44:19.110Z,42.50
2018-09-25T12:46:57.795Z,42.10
2018-09-25T12:49:38.493Z,41.80
2018-09-25T13:06:12.049Z,41.40
2018-09-25T13:08:49.455Z,41.40
2018-09-25T13:11:25.039Z,41.00
2018-09-25T13:14:00.938Z,40.50
2018-09-25T13:16:35.993Z,40.00
2018-09-25T13:19:12.034Z,40.10
2018-09-25T13:21:47.295Z,40.30
2018-09-25T13:24:26.835Z,40.70
2018-09-25T13:27:05.996Z,41.10
2018-09-25T13:29:47.940Z,41.60
2018-09-25T13:32:25.492Z,41.90
2018-09-25T13:35:02.562Z,42.60
2018-09-25T13:37:39.128Z,42.20
2018-09-25T13:40:19.056Z,42.10
2018-09-25T13:43:04.117Z,41.70
2018-09-25T13:45:39.784Z,41.00
2018-09-25T13:48:15.865Z,40.40
2018-09-25T13:50:53.657Z,40.10
2018-09-25T13:53:30.445Z,39.70
2018-09-25T13:56:06.252Z,39.80
2018-09-25T13:58:47.223Z,40.10
2018-09-25T14:01:23.073Z,40.40
2018-09-25T14:04:20.523Z,39.90
2018-09-25T14:06:58.064Z,39.90
2018-09-25T14:09:36.632Z,39.50
2018-09-25T14:12:16.026Z,39.10
2018-09-25T14:14:53.712Z,38.90
2018-09-25T14:17:28.870Z,39.10
2018-09-25T14:20:06.211Z,39.30
2018-09-25T14:22:46.663Z,39.10
2018-09-25T14:25:21.743Z,38.80
2018-09-25T14:27:57.148Z,38.40
2018-09-25T14:30:35.169Z,38.00
2018-09-25T14:39:17.402Z,35.90
2018-09-25T14:42:07.522Z,36.30
2018-09-25T14:44:45.690Z,36.90
2018-09-25T14:47:21.784Z,37.60
2018-09-25T14:50:00.961Z,37.00
2018-09-25T14:52:43.442Z,37.10
2018-09-25T14:55:56.508Z,37.50
2018-09-25T14:58:36.840Z,37.70
2018-09-25T15:04:01.660Z,37.40
2018-09-25T15:06:37.690Z,37.30
2018-09-25T15:09:16.681Z,37.00
2018-09-25T15:11:56.465Z,36.60
2018-09-25T15:14:39.607Z,36.60
2018-09-25T15:17:17.393Z,36.60
2018-09-25T15:19:52.482Z,36.60
2018-09-25T15:22:32.842Z,36.60
2018-09-25T15:25:13.993Z,36.50
2018-09-25T15:27:53.259Z,36.40
2018-09-25T15:35:02.905Z,36.30
2018-09-25T15:37:47.253Z,37.00
2018-09-25T15:40:31.821Z,36.30
2018-09-25T15:43:10.145Z,36.50
2018-09-25T15:45:46.101Z,36.90
2018-09-25T15:48:24.143Z,37.20
2018-09-25T16:02:13.484Z,37.40
2018-09-25T16:04:53.386Z,37.60
2018-09-25T16:07:30.417Z,37.70
2018-09-25T16:10:08.694Z,37.60
2018-09-25T16:12:50.582Z,37.50
2018-09-25T16:15:26.490Z,37.90
2018-09-25T16:18:03.626Z,38.00
2018-09-25T16:20:40.346Z,37.80
2018-09-25T16:23:17.365Z,38.00
2018-09-25T16:25:54.513Z,38.00
2018-09-25T16:28:34.730Z,38.00
2018-09-25T16:49:08.374Z,38.30
2018-09-25T16:51:49.789Z,38.50
2018-09-25T16:54:31.559Z,38.40
2018-09-25T16:57:15.712Z,38.40
2018-09-25T16:59:52.065Z,38.40
2018-09-25T17:02:33.428Z,38.40
2018-09-25T17:05:13.454Z,38.80
2018-09-25T17:07:52.747Z,39.10
2018-09-25T17:13:42.986Z,39.60
2018-09-25T17:16:25.763Z,39.80
2018-09-25T17:19:03.164Z,40.10
2018-09-25T17:21:42.604Z,40.20
2018-09-25T17:24:24.547Z,40.20
2018-09-25T17:29:56.083Z,40.60
2018-09-25T17:32:34.608Z,40.60
2018-09-25T17:35:13.953Z,40.90
2018-09-25T17:37:51.691Z,41.10
2018-09-25T17:40:29.123Z,41.40
2018-09-25T17:43:08.506Z,41.50
2018-09-25T18:56:12.754Z,43.00
2018-09-25T18:58:54.489Z,44.60
2018-09-25T23:37:29.518Z,47.80
